sensor_id;sensor_type;location;lat;lon;timestamp;temperature;humidity
12043;DHT22;6082;49.306;12.862;2024-02-26T00:01:59;1.80;99.90
12043;DHT22;6082;49.306;12.862;2024-02-26T00:04:24;1.80;99.90
12043;DHT22;6082;49.306;12.862;2024-02-26T00:06:50;1.70;99.90
12043;DHT22;6082;49.306;12.862;2024-02-26T00:09:16;1.80;99.90
12043;DHT22;6082;49.306;12.862;2024-02-26T00:11:42;1.80;99.90
12043;DHT22;6082;49.306;12.862;2024-02-26T00:14:08;1.70;99.90
12043;DHT22;6082;49.306;12.862;2024-02-26T00:16:33;1.70;99.90
12043;DHT22;6082;49.306;12.862;2024-02-26T00:19:00;1.70;99.90
12043;DHT22;6082;49.306;12.862;2024-02-26T00:21:26;1.60;99.90
12043;DHT22;6082;49.306;12.862;2024-02-26T00:23:53;1.60;99.90
12043;DHT22;6082;49.306;12.862;2024-02-26T00:26:18;1.50;99.90
12043;DHT22;6082;49.306;12.862;2024-02-26T00:28:44;1.60;99.90
12043;DHT22;6082;49.306;12.862;2024-02-26T00:31:10;1.50;99.90
12043;DHT22;6082;49.306;12.862;2024-02-26T00:33:36;1.50;99.90
12043;DHT22;6082;49.306;12.862;2024-02-26T00:36:01;1.50;99.90
12043;DHT22;6082;49.306;12.862;2024-02-26T00:38:27;1.50;99.90
12043;DHT22;6082;49.306;12.862;2024-02-26T00:40:53;1.50;99.90
12043;DHT22;6082;49.306;12.862;2024-02-26T00:43:19;1.60;99.90
12043;DHT22;6082;49.306;12.862;2024-02-26T00:45:44;1.60;99.90
12043;DHT22;6082;49.306;12.862;2024-02-26T00:48:12;1.60;99.90
12043;DHT22;6082;49.306;12.862;2024-02-26T00:50:39;1.50;99.90
12043;DHT22;6082;49.306;12.862;2024-02-26T00:53:05;1.50;99.90
12043;DHT22;6082;49.306;12.862;2024-02-26T00:55:31;1.50;99.90
12043;DHT22;6082;49.306;12.862;2024-02-26T00:57:56;1.50;99.90
12043;DHT22;6082;49.306;12.862;2024-02-26T01:00:22;1.50;99.90
12043;DHT22;6082;49.306;12.862;2024-02-26T01:02:48;1.60;99.90
12043;DHT22;6082;49.306;12.862;2024-02-26T01:05:14;1.60;99.90
12043;DHT22;6082;49.306;12.862;2024-02-26T01:07:41;1.60;99.90
12043;DHT22;6082;49.306;12.862;2024-02-26T01:10:08;1.60;99.90
12043;DHT22;6082;49.306;12.862;2024-02-26T01:12:34;1.50;99.90
12043;DHT22;6082;49.306;12.862;2024-02-26T01:15:03;1.50;99.90
12043;DHT22;6082;49.306;12.862;2024-02-26T01:17:29;1.50;99.90
12043;DHT22;6082;49.306;12.862;2024-02-26T01:19:55;1.50;99.90
12043;DHT22;6082;49.306;12.862;2024-02-26T01:22:21;1.50;99.90
12043;DHT22;6082;49.306;12.862;2024-02-26T01:24:46;1.50;99.90
12043;DHT22;6082;49.306;12.862;2024-02-26T01:27:12;1.50;99.90
12043;DHT22;6082;49.306;12.862;2024-02-26T01:29:39;1.50;99.90
12043;DHT22;6082;49.306;12.862;2024-02-26T01:32:05;1.40;99.90
12043;DHT22;6082;49.306;12.862;2024-02-26T01:34:31;1.40;99.90
12043;DHT22;6082;49.306;12.862;2024-02-26T01:36:57;1.30;99.90
12043;DHT22;6082;49.306;12.862;2024-02-26T01:39:23;1.30;99.90
12043;DHT22;6082;49.306;12.862;2024-02-26T01:41:52;1.30;99.90
12043;DHT22;6082;49.306;12.862;2024-02-26T01:44:18;1.30;99.90
12043;DHT22;6082;49.306;12.862;2024-02-26T01:46:43;1.30;99.90
12043;DHT22;6082;49.306;12.862;2024-02-26T01:49:11;1.30;99.90
12043;DHT22;6082;49.306;12.862;2024-02-26T01:51:39;1.30;99.90
12043;DHT22;6082;49.306;12.862;2024-02-26T01:54:06;1.30;99.90
12043;DHT22;6082;49.306;12.862;2024-02-26T01:56:34;1.30;99.90
12043;DHT22;6082;49.306;12.862;2024-02-26T01:59:01;1.30;99.90
12043;DHT22;6082;49.306;12.862;2024-02-26T02:01:28;1.30;99.90
12043;DHT22;6082;49.306;12.862;2024-02-26T02:03:56;1.30;99.90
12043;DHT22;6082;49.306;12.862;2024-02-26T02:06:23;1.20;99.90
12043;DHT22;6082;49.306;12.862;2024-02-26T02:08:49;1.20;99.90
12043;DHT22;6082;49.306;12.862;2024-02-26T02:11:15;1.20;99.90
12043;DHT22;6082;49.306;12.862;2024-02-26T02:13:41;1.20;99.90
12043;DHT22;6082;49.306;12.862;2024-02-26T02:16:07;1.20;99.90
12043;DHT22;6082;49.306;12.862;2024-02-26T02:18:33;1.30;99.90
12043;DHT22;6082;49.306;12.862;2024-02-26T02:21:02;1.20;99.90
12043;DHT22;6082;49.306;12.862;2024-02-26T02:23:28;1.30;99.90
12043;DHT22;6082;49.306;12.862;2024-02-26T02:25:54;1.20;99.90
12043;DHT22;6082;49.306;12.862;2024-02-26T02:28:22;1.20;99.90
12043;DHT22;6082;49.306;12.862;2024-02-26T02:30:48;1.20;99.90
12043;DHT22;6082;49.306;12.862;2024-02-26T02:33:15;1.20;99.90
12043;DHT22;6082;49.306;12.862;2024-02-26T02:35:41;1.20;99.90
12043;DHT22;6082;49.306;12.862;2024-02-26T02:38:07;1.20;99.90
12043;DHT22;6082;49.306;12.862;2024-02-26T02:40:32;1.20;99.90
12043;DHT22;6082;49.306;12.862;2024-02-26T02:42:58;1.20;99.90
12043;DHT22;6082;49.306;12.862;2024-02-26T02:45:25;1.10;99.90
12043;DHT22;6082;49.306;12.862;2024-02-26T02:47:51;1.20;99.90
12043;DHT22;6082;49.306;12.862;2024-02-26T02:50:17;1.20;99.90
12043;DHT22;6082;49.306;12.862;2024-02-26T02:52:42;1.20;99.90
12043;DHT22;6082;49.306;12.862;2024-02-26T02:55:09;1.30;99.90
12043;DHT22;6082;49.306;12.862;2024-02-26T02:57:35;1.30;99.90
12043;DHT22;6082;49.306;12.862;2024-02-26T03:00:07;1.20;99.90
12043;DHT22;6082;49.306;12.862;2024-02-26T03:02:33;1.30;99.90
12043;DHT22;6082;49.306;12.862;2024-02-26T03:05:01;1.20;99.90
12043;DHT22;6082;49.306;12.862;2024-02-26T03:07:28;1.20;99.90
12043;DHT22;6082;49.306;12.862;2024-02-26T03:09:53;1.20;99.90
12043;DHT22;6082;49.306;12.862;2024-02-26T03:12:19;1.20;99.90
12043;DHT22;6082;49.306;12.862;2024-02-26T03:14:45;1.20;99.90
12043;DHT22;6082;49.306;12.862;2024-02-26T03:17:11;1.30;99.90
12043;DHT22;6082;49.306;12.862;2024-02-26T03:19:37;1.30;99.90
12043;DHT22;6082;49.306;12.862;2024-02-26T03:22:02;1.30;99.90
12043;DHT22;6082;49.306;12.862;2024-02-26T03:24:28;1.30;99.90
12043;DHT22;6082;49.306;12.862;2024-02-26T03:26:54;1.30;99.90
12043;DHT22;6082;49.306;12.862;2024-02-26T03:29:19;1.30;99.90
12043;DHT22;6082;49.306;12.862;2024-02-26T03:31:45;1.40;99.90
12043;DHT22;6082;49.306;12.862;2024-02-26T03:34:11;1.40;99.90
12043;DHT22;6082;49.306;12.862;2024-02-26T03:36:38;1.40;99.90
12043;DHT22;6082;49.306;12.862;2024-02-26T03:39:03;1.40;99.90
12043;DHT22;6082;49.306;12.862;2024-02-26T03:41:33;1.50;99.90
12043;DHT22;6082;49.306;12.862;2024-02-26T03:43:59;1.50;99.90
12043;DHT22;6082;49.306;12.862;2024-02-26T03:46:25;1.50;99.90
12043;DHT22;6082;49.306;12.862;2024-02-26T03:48:51;1.50;99.90
12043;DHT22;6082;49.306;12.862;2024-02-26T03:51:16;1.50;99.90
12043;DHT22;6082;49.306;12.862;2024-02-26T03:53:42;1.60;99.90
12043;DHT22;6082;49.306;12.862;2024-02-26T03:56:09;1.60;99.90
12043;DHT22;6082;49.306;12.862;2024-02-26T03:58:36;1.60;99.90
12043;DHT22;6082;49.306;12.862;2024-02-26T04:01:02;1.70;99.90
12043;DHT22;6082;49.306;12.862;2024-02-26T04:03:28;1.70;99.90
12043;DHT22;6082;49.306;12.862;2024-02-26T04:05:53;1.70;99.90
12043;DHT22;6082;49.306;12.862;2024-02-26T04:08:19;1.60;99.90
12043;DHT22;6082;49.306;12.862;2024-02-26T04:10:45;1.70;99.90
12043;DHT22;6082;49.306;12.862;2024-02-26T04:13:11;1.70;99.90
12043;DHT22;6082;49.306;12.862;2024-02-26T04:15:37;1.70;99.90
12043;DHT22;6082;49.306;12.862;2024-02-26T04:18:02;1.70;99.90
12043;DHT22;6082;49.306;12.862;2024-02-26T04:20:28;1.70;99.90
12043;DHT22;6082;49.306;12.862;2024-02-26T04:22:54;1.70;99.90
12043;DHT22;6082;49.306;12.862;2024-02-26T04:25:20;1.70;99.90
12043;DHT22;6082;49.306;12.862;2024-02-26T04:27:45;1.70;99.90
12043;DHT22;6082;49.306;12.862;2024-02-26T04:30:11;1.70;99.90
12043;DHT22;6082;49.306;12.862;2024-02-26T04:32:37;1.70;99.90
12043;DHT22;6082;49.306;12.862;2024-02-26T04:35:03;1.80;99.90
12043;DHT22;6082;49.306;12.862;2024-02-26T04:37:29;1.70;99.90
12043;DHT22;6082;49.306;12.862;2024-02-26T04:39:59;1.80;99.90
12043;DHT22;6082;49.306;12.862;2024-02-26T04:42:25;1.80;99.90
12043;DHT22;6082;49.306;12.862;2024-02-26T04:44:51;1.80;99.90
12043;DHT22;6082;49.306;12.862;2024-02-26T04:47:17;1.90;99.90
12043;DHT22;6082;49.306;12.862;2024-02-26T04:49:43;1.80;99.90
12043;DHT22;6082;49.306;12.862;2024-02-26T04:52:08;1.90;99.90
12043;DHT22;6082;49.306;12.862;2024-02-26T04:54:34;1.90;99.90
12043;DHT22;6082;49.306;12.862;2024-02-26T04:57:00;1.90;99.90
12043;DHT22;6082;49.306;12.862;2024-02-26T04:59:26;1.90;99.90
12043;DHT22;6082;49.306;12.862;2024-02-26T05:01:51;1.90;99.90
12043;DHT22;6082;49.306;12.862;2024-02-26T05:04:18;1.80;99.90
12043;DHT22;6082;49.306;12.862;2024-02-26T05:06:44;1.80;99.90
12043;DHT22;6082;49.306;12.862;2024-02-26T05:09:10;1.90;99.90
12043;DHT22;6082;49.306;12.862;2024-02-26T05:11:36;1.90;99.90
12043;DHT22;6082;49.306;12.862;2024-02-26T05:14:02;1.80;99.90
12043;DHT22;6082;49.306;12.862;2024-02-26T05:16:28;1.80;99.90
12043;DHT22;6082;49.306;12.862;2024-02-26T05:18:55;1.80;99.90
12043;DHT22;6082;49.306;12.862;2024-02-26T05:21:21;1.80;99.90
12043;DHT22;6082;49.306;12.862;2024-02-26T05:23:47;1.70;99.90
12043;DHT22;6082;49.306;12.862;2024-02-26T05:26:19;1.70;99.90
12043;DHT22;6082;49.306;12.862;2024-02-26T05:28:45;1.70;99.90
12043;DHT22;6082;49.306;12.862;2024-02-26T05:31:13;1.60;99.90
12043;DHT22;6082;49.306;12.862;2024-02-26T05:33:39;1.60;99.90
12043;DHT22;6082;49.306;12.862;2024-02-26T05:36:05;1.60;99.90
12043;DHT22;6082;49.306;12.862;2024-02-26T05:38:31;1.60;99.90
12043;DHT22;6082;49.306;12.862;2024-02-26T05:40:57;1.60;99.90
12043;DHT22;6082;49.306;12.862;2024-02-26T05:43:24;1.60;99.90
12043;DHT22;6082;49.306;12.862;2024-02-26T05:45:50;1.60;99.90
12043;DHT22;6082;49.306;12.862;2024-02-26T05:48:16;1.60;99.90
12043;DHT22;6082;49.306;12.862;2024-02-26T05:50:42;1.60;99.90
12043;DHT22;6082;49.306;12.862;2024-02-26T05:53:07;1.60;99.90
12043;DHT22;6082;49.306;12.862;2024-02-26T05:55:33;1.60;99.90
12043;DHT22;6082;49.306;12.862;2024-02-26T05:57:59;1.60;99.90
12043;DHT22;6082;49.306;12.862;2024-02-26T06:00:24;1.60;99.90
12043;DHT22;6082;49.306;12.862;2024-02-26T06:02:50;1.70;99.90
12043;DHT22;6082;49.306;12.862;2024-02-26T06:05:16;1.60;99.90
12043;DHT22;6082;49.306;12.862;2024-02-26T06:07:41;1.60;99.90
12043;DHT22;6082;49.306;12.862;2024-02-26T06:10:07;1.60;99.90
12043;DHT22;6082;49.306;12.862;2024-02-26T06:12:35;1.60;99.90
12043;DHT22;6082;49.306;12.862;2024-02-26T06:15:01;1.50;99.90
12043;DHT22;6082;49.306;12.862;2024-02-26T06:17:27;1.50;99.90
12043;DHT22;6082;49.306;12.862;2024-02-26T06:19:53;1.50;99.90
12043;DHT22;6082;49.306;12.862;2024-02-26T06:22:19;1.60;99.90
12043;DHT22;6082;49.306;12.862;2024-02-26T06:24:45;1.50;99.90
12043;DHT22;6082;49.306;12.862;2024-02-26T06:27:11;1.50;99.90
12043;DHT22;6082;49.306;12.862;2024-02-26T06:29:36;1.50;99.90
12043;DHT22;6082;49.306;12.862;2024-02-26T06:32:02;1.50;99.90
12043;DHT22;6082;49.306;12.862;2024-02-26T06:34:28;1.60;99.90
12043;DHT22;6082;49.306;12.862;2024-02-26T06:36:53;1.60;99.90
12043;DHT22;6082;49.306;12.862;2024-02-26T06:39:19;1.60;99.90
12043;DHT22;6082;49.306;12.862;2024-02-26T06:41:45;1.60;99.90
12043;DHT22;6082;49.306;12.862;2024-02-26T06:44:13;1.50;99.90
12043;DHT22;6082;49.306;12.862;2024-02-26T06:46:38;1.50;99.90
12043;DHT22;6082;49.306;12.862;2024-02-26T06:49:05;1.40;99.90
12043;DHT22;6082;49.306;12.862;2024-02-26T06:51:30;1.50;99.90
12043;DHT22;6082;49.306;12.862;2024-02-26T06:53:56;1.50;99.90
12043;DHT22;6082;49.306;12.862;2024-02-26T06:56:22;1.50;99.90
12043;DHT22;6082;49.306;12.862;2024-02-26T06:58:47;1.50;99.90
12043;DHT22;6082;49.306;12.862;2024-02-26T07:01:13;1.50;99.90
12043;DHT22;6082;49.306;12.862;2024-02-26T07:03:42;1.60;99.90
12043;DHT22;6082;49.306;12.862;2024-02-26T07:06:08;1.50;99.90
12043;DHT22;6082;49.306;12.862;2024-02-26T07:08:34;1.60;99.90
12043;DHT22;6082;49.306;12.862;2024-02-26T07:11:00;1.60;99.90
12043;DHT22;6082;49.306;12.862;2024-02-26T07:13:25;1.60;99.90
12043;DHT22;6082;49.306;12.862;2024-02-26T07:15:51;1.60;99.90
12043;DHT22;6082;49.306;12.862;2024-02-26T07:18:17;1.60;99.90
12043;DHT22;6082;49.306;12.862;2024-02-26T07:20:42;1.60;99.90
12043;DHT22;6082;49.306;12.862;2024-02-26T07:23:08;1.70;99.90
12043;DHT22;6082;49.306;12.862;2024-02-26T07:25:34;1.70;99.90
12043;DHT22;6082;49.306;12.862;2024-02-26T07:27:59;1.70;99.90
12043;DHT22;6082;49.306;12.862;2024-02-26T07:30:25;1.70;99.90
12043;DHT22;6082;49.306;12.862;2024-02-26T07:32:51;1.80;99.90
12043;DHT22;6082;49.306;12.862;2024-02-26T07:35:17;1.80;99.90
12043;DHT22;6082;49.306;12.862;2024-02-26T07:37:43;1.80;99.90
12043;DHT22;6082;49.306;12.862;2024-02-26T07:40:09;1.80;99.90
12043;DHT22;6082;49.306;12.862;2024-02-26T07:42:35;1.80;99.90
12043;DHT22;6082;49.306;12.862;2024-02-26T07:45:02;1.80;99.90
12043;DHT22;6082;49.306;12.862;2024-02-26T07:47:28;1.80;99.90
12043;DHT22;6082;49.306;12.862;2024-02-26T07:49:53;1.90;99.90
12043;DHT22;6082;49.306;12.862;2024-02-26T07:52:19;1.90;99.90
12043;DHT22;6082;49.306;12.862;2024-02-26T07:54:45;1.90;99.90
12043;DHT22;6082;49.306;12.862;2024-02-26T07:57:10;1.90;99.90
12043;DHT22;6082;49.306;12.862;2024-02-26T07:59:36;1.90;99.90
12043;DHT22;6082;49.306;12.862;2024-02-26T08:02:02;1.90;99.90
12043;DHT22;6082;49.306;12.862;2024-02-26T08:04:29;2.00;99.90
12043;DHT22;6082;49.306;12.862;2024-02-26T08:06:55;1.90;99.90
12043;DHT22;6082;49.306;12.862;2024-02-26T08:09:20;1.90;99.90
12043;DHT22;6082;49.306;12.862;2024-02-26T08:11:46;2.00;99.90
12043;DHT22;6082;49.306;12.862;2024-02-26T08:14:12;2.00;99.90
12043;DHT22;6082;49.306;12.862;2024-02-26T08:16:37;2.00;99.90
12043;DHT22;6082;49.306;12.862;2024-02-26T08:19:04;2.00;99.90
12043;DHT22;6082;49.306;12.862;2024-02-26T08:21:29;2.00;99.90
12043;DHT22;6082;49.306;12.862;2024-02-26T08:23:55;2.10;99.90
12043;DHT22;6082;49.306;12.862;2024-02-26T08:26:21;2.10;99.90
12043;DHT22;6082;49.306;12.862;2024-02-26T08:28:48;2.10;99.90
12043;DHT22;6082;49.306;12.862;2024-02-26T08:31:14;2.10;99.90
12043;DHT22;6082;49.306;12.862;2024-02-26T08:33:40;2.10;99.90
12043;DHT22;6082;49.306;12.862;2024-02-26T08:36:06;2.10;99.90
12043;DHT22;6082;49.306;12.862;2024-02-26T08:38:32;2.10;99.90
12043;DHT22;6082;49.306;12.862;2024-02-26T08:41:02;2.20;99.90
12043;DHT22;6082;49.306;12.862;2024-02-26T08:43:30;2.20;99.90
12043;DHT22;6082;49.306;12.862;2024-02-26T08:45:57;2.30;99.90
12043;DHT22;6082;49.306;12.862;2024-02-26T08:48:22;2.30;99.90
12043;DHT22;6082;49.306;12.862;2024-02-26T08:50:48;2.30;99.90
12043;DHT22;6082;49.306;12.862;2024-02-26T08:53:14;2.30;99.90
12043;DHT22;6082;49.306;12.862;2024-02-26T08:55:39;2.40;99.90
12043;DHT22;6082;49.306;12.862;2024-02-26T08:58:05;2.40;99.90
12043;DHT22;6082;49.306;12.862;2024-02-26T09:00:31;2.40;99.90
12043;DHT22;6082;49.306;12.862;2024-02-26T09:02:57;2.40;99.90
12043;DHT22;6082;49.306;12.862;2024-02-26T09:05:22;2.40;99.90
12043;DHT22;6082;49.306;12.862;2024-02-26T09:07:48;2.30;99.90
12043;DHT22;6082;49.306;12.862;2024-02-26T09:10:14;2.40;99.90
12043;DHT22;6082;49.306;12.862;2024-02-26T09:12:39;2.40;99.90
12043;DHT22;6082;49.306;12.862;2024-02-26T09:15:06;2.40;99.90
12043;DHT22;6082;49.306;12.862;2024-02-26T09:17:32;2.40;99.90
12043;DHT22;6082;49.306;12.862;2024-02-26T09:19:58;2.40;99.90
12043;DHT22;6082;49.306;12.862;2024-02-26T09:22:24;2.40;99.90
12043;DHT22;6082;49.306;12.862;2024-02-26T09:24:49;2.50;99.90
12043;DHT22;6082;49.306;12.862;2024-02-26T09:27:16;2.40;99.90
12043;DHT22;6082;49.306;12.862;2024-02-26T09:29:42;2.50;99.90
12043;DHT22;6082;49.306;12.862;2024-02-26T09:32:08;2.50;99.90
12043;DHT22;6082;49.306;12.862;2024-02-26T09:34:34;2.50;99.90
12043;DHT22;6082;49.306;12.862;2024-02-26T09:37:00;2.60;99.90
12043;DHT22;6082;49.306;12.862;2024-02-26T09:39:26;2.60;99.90
12043;DHT22;6082;49.306;12.862;2024-02-26T09:41:53;2.60;99.90
12043;DHT22;6082;49.306;12.862;2024-02-26T09:44:19;2.60;99.90
12043;DHT22;6082;49.306;12.862;2024-02-26T09:46:47;2.60;99.90
12043;DHT22;6082;49.306;12.862;2024-02-26T09:49:15;2.60;99.90
12043;DHT22;6082;49.306;12.862;2024-02-26T09:51:41;2.70;99.90
12043;DHT22;6082;49.306;12.862;2024-02-26T09:54:09;2.70;99.90
12043;DHT22;6082;49.306;12.862;2024-02-26T09:56:40;2.70;99.90
12043;DHT22;6082;49.306;12.862;2024-02-26T09:59:16;2.70;99.90
12043;DHT22;6082;49.306;12.862;2024-02-26T10:01:42;2.80;99.90
12043;DHT22;6082;49.306;12.862;2024-02-26T10:04:10;2.90;99.90
12043;DHT22;6082;49.306;12.862;2024-02-26T10:06:37;2.80;99.90
12043;DHT22;6082;49.306;12.862;2024-02-26T10:09:03;2.90;99.90
12043;DHT22;6082;49.306;12.862;2024-02-26T10:11:32;2.90;99.90
12043;DHT22;6082;49.306;12.862;2024-02-26T10:13:58;2.80;99.90
12043;DHT22;6082;49.306;12.862;2024-02-26T10:16:25;2.90;99.90
12043;DHT22;6082;49.306;12.862;2024-02-26T10:18:52;3.00;99.90
12043;DHT22;6082;49.306;12.862;2024-02-26T10:21:20;3.00;99.90
12043;DHT22;6082;49.306;12.862;2024-02-26T10:23:46;3.00;99.90
12043;DHT22;6082;49.306;12.862;2024-02-26T10:26:16;3.00;99.90
12043;DHT22;6082;49.306;12.862;2024-02-26T10:28:43;3.10;99.90
12043;DHT22;6082;49.306;12.862;2024-02-26T10:31:10;3.10;99.90
12043;DHT22;6082;49.306;12.862;2024-02-26T10:33:39;3.20;99.90
12043;DHT22;6082;49.306;12.862;2024-02-26T10:36:07;3.20;99.90
12043;DHT22;6082;49.306;12.862;2024-02-26T10:38:35;3.30;99.90
12043;DHT22;6082;49.306;12.862;2024-02-26T10:41:05;3.30;99.90
12043;DHT22;6082;49.306;12.862;2024-02-26T10:43:31;3.30;99.90
12043;DHT22;6082;49.306;12.862;2024-02-26T10:45:58;3.30;99.90
12043;DHT22;6082;49.306;12.862;2024-02-26T10:48:24;3.30;99.90
12043;DHT22;6082;49.306;12.862;2024-02-26T10:50:50;3.30;99.90
12043;DHT22;6082;49.306;12.862;2024-02-26T10:53:22;3.40;99.90
12043;DHT22;6082;49.306;12.862;2024-02-26T10:55:57;3.40;99.90
12043;DHT22;6082;49.306;12.862;2024-02-26T10:58:23;3.40;99.90
12043;DHT22;6082;49.306;12.862;2024-02-26T11:00:51;3.40;99.90
12043;DHT22;6082;49.306;12.862;2024-02-26T11:03:18;3.40;99.90
12043;DHT22;6082;49.306;12.862;2024-02-26T11:05:49;3.40;99.90
12043;DHT22;6082;49.306;12.862;2024-02-26T11:08:19;3.50;99.90
12043;DHT22;6082;49.306;12.862;2024-02-26T11:10:47;3.60;99.90
12043;DHT22;6082;49.306;12.862;2024-02-26T11:13:16;3.50;99.90
12043;DHT22;6082;49.306;12.862;2024-02-26T11:15:43;3.60;99.90
12043;DHT22;6082;49.306;12.862;2024-02-26T11:18:10;3.60;99.90
12043;DHT22;6082;49.306;12.862;2024-02-26T11:20:38;3.60;99.90
12043;DHT22;6082;49.306;12.862;2024-02-26T11:23:07;3.70;99.90
12043;DHT22;6082;49.306;12.862;2024-02-26T11:25:32;3.80;99.90
12043;DHT22;6082;49.306;12.862;2024-02-26T11:28:04;3.80;99.90
12043;DHT22;6082;49.306;12.862;2024-02-26T11:30:33;3.80;99.90
12043;DHT22;6082;49.306;12.862;2024-02-26T11:33:01;3.90;99.90
12043;DHT22;6082;49.306;12.862;2024-02-26T11:35:28;3.90;99.90
12043;DHT22;6082;49.306;12.862;2024-02-26T11:37:55;3.90;99.90
12043;DHT22;6082;49.306;12.862;2024-02-26T11:40:25;3.90;99.90
12043;DHT22;6082;49.306;12.862;2024-02-26T11:42:51;3.90;99.90
12043;DHT22;6082;49.306;12.862;2024-02-26T11:48:03;3.90;99.90
12043;DHT22;6082;49.306;12.862;2024-02-26T11:50:50;3.90;99.90
12043;DHT22;6082;49.306;12.862;2024-02-26T11:53:28;3.90;99.90
12043;DHT22;6082;49.306;12.862;2024-02-26T11:56:22;4.00;99.90
12043;DHT22;6082;49.306;12.862;2024-02-26T11:59:00;3.90;99.90
12043;DHT22;6082;49.306;12.862;2024-02-26T12:01:42;3.80;99.90
12043;DHT22;6082;49.306;12.862;2024-02-26T12:04:13;3.80;99.90
12043;DHT22;6082;49.306;12.862;2024-02-26T12:06:54;3.80;99.90
12043;DHT22;6082;49.306;12.862;2024-02-26T12:12:00;3.90;99.90
12043;DHT22;6082;49.306;12.862;2024-02-26T12:14:26;3.90;99.90
12043;DHT22;6082;49.306;12.862;2024-02-26T12:16:53;3.90;99.90
12043;DHT22;6082;49.306;12.862;2024-02-26T12:19:20;3.90;99.90
12043;DHT22;6082;49.306;12.862;2024-02-26T12:21:51;3.90;99.90
12043;DHT22;6082;49.306;12.862;2024-02-26T12:24:18;4.00;99.90
12043;DHT22;6082;49.306;12.862;2024-02-26T12:26:45;4.00;99.90
12043;DHT22;6082;49.306;12.862;2024-02-26T12:29:11;4.10;99.90
12043;DHT22;6082;49.306;12.862;2024-02-26T12:31:39;4.10;99.90
12043;DHT22;6082;49.306;12.862;2024-02-26T12:34:06;4.10;99.90
12043;DHT22;6082;49.306;12.862;2024-02-26T12:36:34;4.20;99.90
12043;DHT22;6082;49.306;12.862;2024-02-26T12:39:01;4.20;99.90
12043;DHT22;6082;49.306;12.862;2024-02-26T12:41:27;4.10;99.90
12043;DHT22;6082;49.306;12.862;2024-02-26T12:43:55;4.10;99.90
12043;DHT22;6082;49.306;12.862;2024-02-26T12:46:22;4.20;99.90
12043;DHT22;6082;49.306;12.862;2024-02-26T12:48:48;4.20;99.90
12043;DHT22;6082;49.306;12.862;2024-02-26T12:51:17;4.30;99.90
12043;DHT22;6082;49.306;12.862;2024-02-26T12:53:45;4.20;99.90
12043;DHT22;6082;49.306;12.862;2024-02-26T12:56:11;4.30;99.90
12043;DHT22;6082;49.306;12.862;2024-02-26T12:58:40;4.30;99.90
12043;DHT22;6082;49.306;12.862;2024-02-26T13:01:07;4.30;99.90
12043;DHT22;6082;49.306;12.862;2024-02-26T13:03:39;4.30;99.90
12043;DHT22;6082;49.306;12.862;2024-02-26T13:06:05;4.30;99.90
12043;DHT22;6082;49.306;12.862;2024-02-26T13:08:32;4.30;99.90
12043;DHT22;6082;49.306;12.862;2024-02-26T13:10:59;4.20;99.90
12043;DHT22;6082;49.306;12.862;2024-02-26T13:13:25;4.20;99.90
12043;DHT22;6082;49.306;12.862;2024-02-26T13:16:04;4.30;99.90
12043;DHT22;6082;49.306;12.862;2024-02-26T13:18:31;4.30;99.90
12043;DHT22;6082;49.306;12.862;2024-02-26T13:21:11;4.30;99.90
12043;DHT22;6082;49.306;12.862;2024-02-26T13:23:40;4.40;99.90
12043;DHT22;6082;49.306;12.862;2024-02-26T13:26:07;4.40;99.90
12043;DHT22;6082;49.306;12.862;2024-02-26T13:28:34;4.40;99.90
12043;DHT22;6082;49.306;12.862;2024-02-26T13:31:00;4.40;99.90
12043;DHT22;6082;49.306;12.862;2024-02-26T13:33:27;4.40;99.90
12043;DHT22;6082;49.306;12.862;2024-02-26T13:35:58;4.40;99.90
12043;DHT22;6082;49.306;12.862;2024-02-26T13:38:23;4.50;99.90
12043;DHT22;6082;49.306;12.862;2024-02-26T13:40:50;4.50;99.90
12043;DHT22;6082;49.306;12.862;2024-02-26T13:43:16;4.60;99.90
12043;DHT22;6082;49.306;12.862;2024-02-26T13:45:43;4.60;99.90
12043;DHT22;6082;49.306;12.862;2024-02-26T13:48:10;4.70;99.90
12043;DHT22;6082;49.306;12.862;2024-02-26T13:50:40;4.60;99.90
12043;DHT22;6082;49.306;12.862;2024-02-26T13:53:06;4.70;99.90
12043;DHT22;6082;49.306;12.862;2024-02-26T13:55:32;4.70;99.90
12043;DHT22;6082;49.306;12.862;2024-02-26T13:57:58;4.80;99.90
12043;DHT22;6082;49.306;12.862;2024-02-26T14:00:29;4.70;99.90
12043;DHT22;6082;49.306;12.862;2024-02-26T14:02:59;4.70;99.90
12043;DHT22;6082;49.306;12.862;2024-02-26T14:05:25;4.70;99.90
12043;DHT22;6082;49.306;12.862;2024-02-26T14:07:52;4.70;99.90
12043;DHT22;6082;49.306;12.862;2024-02-26T14:10:18;4.70;99.90
12043;DHT22;6082;49.306;12.862;2024-02-26T14:12:44;4.70;99.90
12043;DHT22;6082;49.306;12.862;2024-02-26T14:15:10;4.70;99.90
12043;DHT22;6082;49.306;12.862;2024-02-26T14:17:36;4.70;99.90
12043;DHT22;6082;49.306;12.862;2024-02-26T14:20:02;4.70;99.90
12043;DHT22;6082;49.306;12.862;2024-02-26T14:22:29;4.80;99.90
12043;DHT22;6082;49.306;12.862;2024-02-26T14:24:56;4.80;99.90
12043;DHT22;6082;49.306;12.862;2024-02-26T14:27:22;4.80;99.90
12043;DHT22;6082;49.306;12.862;2024-02-26T14:29:48;4.80;99.90
12043;DHT22;6082;49.306;12.862;2024-02-26T14:32:14;4.90;99.90
12043;DHT22;6082;49.306;12.862;2024-02-26T14:34:40;4.90;99.90
12043;DHT22;6082;49.306;12.862;2024-02-26T14:37:06;4.90;99.90
12043;DHT22;6082;49.306;12.862;2024-02-26T14:39:32;4.90;99.90
12043;DHT22;6082;49.306;12.862;2024-02-26T14:41:58;5.00;99.90
12043;DHT22;6082;49.306;12.862;2024-02-26T14:44:25;5.00;99.90
12043;DHT22;6082;49.306;12.862;2024-02-26T14:46:51;5.00;99.90
12043;DHT22;6082;49.306;12.862;2024-02-26T14:49:17;5.00;99.90
12043;DHT22;6082;49.306;12.862;2024-02-26T14:51:46;5.00;99.90
12043;DHT22;6082;49.306;12.862;2024-02-26T14:54:12;4.90;99.90
12043;DHT22;6082;49.306;12.862;2024-02-26T14:56:38;5.00;99.90
12043;DHT22;6082;49.306;12.862;2024-02-26T14:59:04;5.00;99.90
12043;DHT22;6082;49.306;12.862;2024-02-26T15:01:30;5.00;99.90
12043;DHT22;6082;49.306;12.862;2024-02-26T15:03:56;5.00;99.90
12043;DHT22;6082;49.306;12.862;2024-02-26T15:06:23;5.00;99.90
12043;DHT22;6082;49.306;12.862;2024-02-26T15:08:48;5.00;99.90
12043;DHT22;6082;49.306;12.862;2024-02-26T15:11:14;4.90;99.90
12043;DHT22;6082;49.306;12.862;2024-02-26T15:13:40;5.00;99.90
12043;DHT22;6082;49.306;12.862;2024-02-26T15:16:06;5.00;99.90
12043;DHT22;6082;49.306;12.862;2024-02-26T15:18:32;5.00;99.90
12043;DHT22;6082;49.306;12.862;2024-02-26T15:20:58;5.00;99.90
12043;DHT22;6082;49.306;12.862;2024-02-26T15:23:24;4.90;99.90
12043;DHT22;6082;49.306;12.862;2024-02-26T15:25:49;5.00;99.90
12043;DHT22;6082;49.306;12.862;2024-02-26T15:28:16;4.90;99.90
12043;DHT22;6082;49.306;12.862;2024-02-26T15:30:42;5.00;99.90
12043;DHT22;6082;49.306;12.862;2024-02-26T15:33:08;4.90;99.90
12043;DHT22;6082;49.306;12.862;2024-02-26T15:35:34;4.90;99.90
12043;DHT22;6082;49.306;12.862;2024-02-26T15:38:00;4.90;99.90
12043;DHT22;6082;49.306;12.862;2024-02-26T15:40:26;4.90;99.90
12043;DHT22;6082;49.306;12.862;2024-02-26T15:42:52;4.90;99.90
12043;DHT22;6082;49.306;12.862;2024-02-26T15:45:18;4.90;99.90
12043;DHT22;6082;49.306;12.862;2024-02-26T15:47:44;4.80;99.90